Happyland, Minnesota
Current Conditions -  °F | °C
As of 2:04 AM on Monday 26 Jan 2015 (Local Time) from KINL Reporting Station
Light Snow Light Snow  
Wind Chill: 11°   Ceiling: 2000
Heat Index: 21°   Visibility: 1.5mi
Dew Point: 18°   Wind: 9mph
Humidity: 88%   Direction: 150°SSE
Pressure: 29.64"   Gusts: NA
Location:  48.2756°N, 93.4004°W
Report Text: KINL 260804Z AUTO 15008KT 1 1/2SM -SN BR OVC020 M06/M08 A2964 RMK AO2 PRESFR P0000 T10611078
Loading
Personal Weather Stations






























Interactive Weather Map New forecast layout! Learn more

10-Day Weather Forecast

Advertisements
Track Severe Weather on mobile